Terminal Aerodrome Forecast
Issued by NWS Melbourne, FL

Home | Current Version | Previous Version | Text Only | Print | Product List | Glossary On
Versions: 1 2 3 4 5 6 7 8 9 10 11 12 13
000
FTUS42 KMLB 260538
TAFDAB
TAF
KDAB 260538Z 2606/2706 VRB02KT P6SM SKC
     FM261400 16006KT P6SM SCT030
     FM261800 12008KT P6SM SCT040
     FM270000 18003KT P6SM SCT100=

USA.gov is the U.S. government's official web portal to all federal, state and local government web resources and services.